SMRA60 UAOL 210900
AAXX 21091
60007 22681 52503 10180 20104 39905 40161 53008 81594 333 60007=
60060 22456 42404 10174 20134 30075 40153 53021 84500 333 60007 84616 91005 91106 95000=
60101 32460 20922 10147 20035 40225 51014 82200 333 82816=
60105 32960 00610 10160 21003 40197 51014=
60106 32565 23616 10128 20029 40224 52006 82200 333 82820=
60107 32965 00806 10111 20034 40245=
60115 32575 30606 10098 20019 40258 50005 82830 333 82830=
60127 32965 00906 10097 20041 39630 40235 51009=
60135 32958 00813 10141 21011 40176 51013=
60141 32989 00618 10109 20019 39515 40200 52011=
60150 32962 00719 10107 20025 39521 40179 52012=
60155 22960 00618 10141 20024 30110 40177 52014 333 60007 91127=
60156 45960 00510 10124 20046 40176 51013=
60185 32970 01005 10129 20056 30128 40182 51012=
60192 32970 02202 10149 20012 40158 51014=
60195 22458 80612 10014 21018 38518 48532 53009 886// 333 60007 86715 91012 91118 95080=
60210 32583 10106 10101 21033 39025 48531 52013 81100 333 81826=
60220 32/// /0311 10150 20073 40169 8////=
60230 42960 02504 10158 20048 40154 51010=
60252 32356 72104 10158 20144 30057 40150 52018 876// 333 87708=
60265 32960 00606 10120 21072 38909 48527 52014=
60285 32457 80202 10144 20123 39927 40159 52018 875// 333 87616=
60318 32560 61118 10141 20055 40238 51014 86800 333 85820=
60340 32565 30503 10115 20045 40249 52011 83800 333 81820 83630=
60563 41956 23620 10085 20003 39286 48493 57003 70700 80002 333 82073=
60577 42960 20308 10100 20010 39235 48516 52011 82030 333 82360 95900=
60585 42960 00714 10154 21003 40181 52011=
60603 42660 60204 10120 20076 40182 52015 86100 333 86840=
60612 36/// /0417 10242 21114=
60619 36/// /0417 10135 21028=
60638 42960 00106 10141 20033 40166 51015=
60650 36/// /0509 10192 20023=
60660 36/// /3510 10201 20015=
60661 36/// /3506 10171 21003=
60662 36/// /0000 10173 21064=
60663 36/// /0806 10212 21023=
60664 36/// /0000 10214 21080=
60667 36/// /0000 10226 21090=
60672 36/// /0902 10192 21108=
60677 36/// /0000 10192 21061=
60691 36/// /0000 10294 21194=
60692 36/// /3312 10296 21139=
60729 21560 80804 10101 20101 39973 40161 51015 70262 86800 333 59035 60117 86623 91009 91130=
60731 41557 30413 10117 20117 30133 40140 53017 76362 838// 333 59029 60077 83820 86630=
60732 41556 80606 10084 20075 39531 40142 53012 72162 872// 333 87823=
60739 32760 51506 10072 2//// 39314 4//// 51013 83502 333 59046 60007 83650 91009 91117=
60742 41530 72202 10108 20100 30144 40146 53003 71042 85580 333 60007 85626=
60767 32560 22315 10120 20042 39997 40142 51012 82500 333 82630=
60772 32960 02312 10135 20015 39889 40144 51010=
61053 41956 70401 10332 20000 39831 40073 70622 80008 333 58018 87280=
61660 41430 53410 10215 20192 30009 40118 71042 83630 333 58001 83710 83363=
61989 21480 30917 10309 20260 40107 70280 83802 333 59006 69967 82818=
62009 32560 31905 10155 20087 3//// 4//// 5//// 83400 333 83630=
62011 32860 30000 10113 20060 39313 48/// 54015 80009 333 82168=
62014 32960 03605 10160 20069 3//// 4//// 5////=
62054 32960 00910 10200 20074 32960 39884 4////=
62452 32960 03505 10184 20097 40172 52001=
62458 32960 02912 10218 20132 40145 52004=
63688 42580 31110 10268 21022 48531 82201 333 58001 82825 83080=
63881 32580 21303 10245 20142 38204 48/// 82100 333 58007 82823=
64390 42580 21804 10292 20209 39231 48460 82202 333 58008 82825 82080 1013=
64512 42460 62406 10256 20221 3//// 40/// 86500 333 5//// 83613 86630=
64570 42460 82204 10262 20235 39607 40099 888// 333 58008 85805 88612 94919 95839=
64713 42960 70808 10390 20034 3//// 4//// 80002 333 5//// 87075=
64759 42965 60408 10286 21080 3//// 4//// 80002 333 5//// 86075=
64761 42962 71012 10360 21022 3//// 4//// 80002 333 5//// 87075=
65075 41959 62510 10331 20204 39545 40058 70522 80008 333 59006 86280=
65450 42464 32303 10260 20225 40108 81530 333 59004 81611 83362=
67002 42580 32906 10327 20240 30077 40118 81800 333 58012 81820 83630 92408=
67005 24970 /0907 10313 20256 40115 700// 333 58014 60007 90710 91112 555 60005=
67067 32575 728// 10280 20225 39240 48/// 58006 878// 333 82823 86630=
67074 46/// /3502 10263 20253 30119=
67108 34/// /0901 10263 20137 38484=
67116 46/// ///03 10324 20234 30098=
67144 3//// /0610 10305 20267 30113 40118 5/006=
67262 42570 51903 10301 20235 40111 85200 333 58019 94320=
67305 42580 63605 10270 20214 4//// 5//// 86200 333 94321=
67309 42580 61805 10306 20214 40066 52016 86200 333 94324=
67324 42580 41009 10312 20221 40136 51001 84200 333 94320=
67327 42580 63608 10300 20211 40131 58006 86200 333 94320=
67462 42680 52701 10250 20175 48/// 85232 333 58007 85837 82080=
68004 46/// /1106 10333 20004 38550 48507 52008 333 10334 20229 91014 555 91018=
68030 42960 03606 10332 20134 48529 54000=
68070 42960 0//// 10325 20174 48544 58002=
68098 42589 22703 10180 20133 30042 40149 52006 82500 333 10180 20129 91006 555 91015=
68109 42989 00605 10305 21023 38333 4//// 52009 333 1//// 2//// 9////=
68113 42789 23306 10307 20142 39064 48529 52003 81032 333 10310 20176 91013 555 91016=
68155 46/// /0205 10312 20155 39194 48546 51002 333 10312 20203 91010=
68163 46/// /0503 10290 20177 39035 48545 50000 333 10293 20174 91008=
68172 46/// /1004 10306 20153 39345 48551 52007 333 10309 20200 91010=
68179 46/// /0605 10292 20144 39111 48560 58002 333 10294 20249 91014=
68183 46/// /1204 10298 20178 39455 48572 52010 333 10298 20188 91008=
68185 46/// /3405 10256 20160 38601 48542 53005 333 10259 20164 91010=
68187 46/// /0202 10315 20176 39624 48582 53006 333 10317 20199 91006=
68188 46/// /0403 10283 20161 39207 48553 58000 333 10285 20178 91006=
68189 46/// /1709 10274 20159 39023 48549 52010 333 10280 20210 91045=
68196 46/// /1303 10316 20185 39612 48573 52007 333 10318 20213 91007=
68237 46/// /1602 10324 21014 38917 48555 52006 333 10335 20124 91006=
68248 46/// /3603 10305 20148 38956 48549 50000 333 10305 20130 91008=
68249 46/// /3106 10297 20149 38793 48546 53005 333 10300 20133 91013=
68255 46/// /2804 10309 20121 38871 48532 52006 333 10309 20143 91013=
68257 46/// /2806 10306 20118 38934 48530 50000 333 10308 20150 91014=
68267 42570 50507 10223 20145 38264 48531 5//// 85100 333 10227 21394 91013=
68271 46/// /3106 10297 20149 38924 48541 50000 333 10301 20205 91011=
68283 46/// /0502 10254 20161 38897 48544 58000 333 10272 20143 91009=
68285 46/// /3205 10235 20126 38176 48546 53007 333 10237 20144 91012=
68289 46/// /0604 10258 20173 39167 48551 52003 333 10259 20193 91009=
68291 46/// /1604 10292 20197 39554 48569 52006 333 10309 20212 91009=
68297 46/// /0000 10293 20224 39930 48595 52007 333 10293 20221 91003=
68325 42960 03403 10311 20047 48520 54000=
68329 46/// /1905 10310 20034 39109 48560 53005 333 10315 20132 91009=
68333 46/// /3602 10296 20031 38704 48533 53001 333 10300 20116 91006=
68335 46/// /2402 10272 20102 38924 48545 52003 333 10272 20131 91005=
68341 46/// /0310 10291 20136 38546 48544 52006 333 10291 20113 91016=
68343 46/// /0102 10304 20037 38799 48533 51002 333 10308 20103 91005=
68348 46/// /3605 10279 2//// 38761 48534 52003 333 10279 20100 91008=
68355 46/// /3606 10260 20143 38587 48529 52003 333 10260 20139 91010=
68361 46/// /3103 10278 20098 38401 48520 52005 333 10282 20147 91009=
68371 46/// /2805 10276 20118 38399 48551 53002 333 10283 20137 91010=
68375 46/// ///// 10254 20164 38356 48525 57001 333 10254 20155=
68376 46/// /0302 10229 20146 38267 48525 52005 333 10233 20142 91007=
68382 46/// /0604 10270 20214 39360 48559 51005 333 10272 20224 91012=
68387 46/// /0306 10238 20174 38871 48536 51001 333 10260 20190 91014=
68392 46/// /1307 11391 21523 38804 48344 57148 333 11391 21392 91011 555 91005=
68397 46/// /1803 10306 20244 30041 40133 58002 333 10316 20229 91006=
68403 46/// /2210 10193 20121 30137 40165 51007 333 10193 20132 91015=
68411 46/// /1604 10289 20072 39948 48600 53000 333 10291 20208 91008=
68425 46/// /1103 10275 20091 39443 48575 52005 333 10275 20170 91006=
68429 46/// /2003 10273 20046 38704 48530 53003 333 10278 20128 91007=
68439 46/// /1105 10269 20124 38899 48527 53001 333 10270 20162 91009=
68443 46/// /0603 10272 20093 38613 48522 55000 333 10279 20116 91008=
68447 46/// /3206 10284 20099 38729 48532 52003 333 10288 20095 91011=
68449 46/// /0203 10252 20126 38405 48530 52010 333 10253 20114 91007=
68471 46/// /1905 10189 20170 38346 48527 52005 333 10189 20156 91007=
68474 42/// /1005 10221 20153 38637 48530 57003 333 10229 20161 91009=
68479 46/// /1404 10241 20188 38964 48534 50000 333 10243 20176 91006=
68481 46/// /3603 10274 20193 39782 40142 58003 333 10279 20206 91005=
68487 46/// /1502 10185 20176 39017 48537 58000 333 10189 20140 91004=
68491 46/// /1604 10277 20223 30138 40147 53001 333 10297 20237 91008=
68492 46/// /1702 10270 20216 30087 48589 57005 333 10275 20234 91007=
68493 46/// /1104 10273 20190 39552 48567 58002 333 10273 20220 91007=
68494 46/// /2203 10270 20207 30015 40144 58005 333 10271 20218 91006=
68495 46/// /2008 10284 20220 30104 40145 57003 333 10284 20235 91013=
68513 46/// /1516 10208 20115 30061 40172 52002 333 10214 20129 91021=
68516 46/// /1807 10237 20109 39895 48594 58001 333 10243 20113 91015=
68527 46/// /0906 10272 20098 39103 48557 52006 333 10275 20186 91010=
68541 46/// /1305 10253 20130 38641 48531 52003 333 10253 20126 91009=
68543 46/// /1408 10227 20125 38753 48527 53005 333 10229 20153 91013=
68549 46/// /1402 10244 20140 38615 48531 51003 333 10246 20126 91005=
68553 46/// /1702 10339 20235 38241 48517 52005 333 10339 20217 91005=
68577 46/// /1106 10218 20168 38590 48542 50000 333 10218 20144 91012=
68581 46/// /1202 10199 20184 39400 48548 52007 333 10200 20187 91004=
68582 46/// /1303 10201 20189 39345 48545 52006 333 10202 20190 91005=
68583 46/// /2407 10255 20214 30041 40149 51007 333 10255 20217 91013=
68585 46/// /2903 10234 20216 30136 40153 52011 333 10234 20208 91006=
68587 46/// /2010 10231 20193 30148 40164 52010 333 10232 20202 91015=
68589 46/// /0305 10199 20158 38274 48528 51003 333 10202 20142 91008=
68591 46/// /1605 10251 20200 39986 40161 52008 333 10251 20208 91008=
68592 42/// /2210 10235 20210 30030 40153 52007 333 10238 20214 91013=
68594 41470 72010 10239 20207 30044 40149 52003 72166 875// 333 1//// 2////=
68613 46/// /2209 10212 20122 30072 40182 53008 333 10212 20114 91015=
68633 46/// /1409 10208 20112 38528 48523 52008 333 10209 20132 91013=
68647 46/// /0702 10182 20135 38947 48548 52006 333 10182 20150 91008=
68649 46/// /1705 10196 20109 38425 48539 57002 333 10196 20128 91010=
68651 46/// /1605 10150 20137 38581 48544 52008 333 10150 20135 91008=
68677 46/// /2309 10201 20171 30078 40182 52013 333 10212 20187 91016=
68710 46/// /1004 10234 20096 30165 48609 53003 333 10239 20081 91009=
68711 46/// /1402 10238 20096 30054 40170 52003 333 10238 20139 91004=
68713 46/// /2006 10230 20077 30066 48608 52005 333 10230 20120 91010=
68715 46/// /1805 10231 20085 30067 48604 52005 333 10231 20117 91012=
68716 46/// /1606 10215 20055 39979 48594 52003 333 10218 20128 91013=
68717 46/// /1302 10211 20115 30038 48588 52002 333 10220 20105 91005=
68719 46/// /2302 10210 20024 39111 48561 52002 333 10213 20066 91004=
68723 46/// /1203 10221 20069 39433 48569 51001 333 10221 20151 91008=
68727 46/// /0706 10198 20114 39160 48547 52006 333 10209 20141 91013=
68737 46/// /0502 10202 20123 39284 48559 58003 333 10202 20114 91004=
68747 46/// /2103 10195 20128 39661 48571 58001 333 10198 20146 91005=
68809 46/// /1513 10227 20106 30047 48604 52005 333 10228 20114 91020=
68810 46/// /2604 10231 20070 39988 48607 52005 333 10231 20111 91007=
68811 46/// /1813 10221 20110 30192 40200 52009 333 10224 20080 91017=
68813 46/// /1206 10218 20122 30190 40192 53006 333 10222 20102 91011=
68815 46/// /3304 10210 20077 39657 48580 52005 333 10212 20096 91007=
68817 46/// /1812 10208 20107 30186 40199 52006 333 10212 20155 91024=
68819 46/// /3005 10218 20098 30081 48606 52008 333 10219 20147 91010=
68820 46/// /1706 10206 20121 30189 48614 52006 333 10214 20157 91014=
68821 46/// /1307 10213 20093 39959 48600 58001 333 10214 20150 91012=
68822 46/// /1104 10226 20077 39913 48600 52005 333 10227 20060 91010=
68823 46/// /3103 10239 20120 39568 48582 52002 333 10239 20130 91006=
68825 46/// /1903 10199 20104 39575 48577 54000 333 10203 20147 91006=
68827 46/// /0404 10215 20113 39813 48592 58002 333 10218 20170 91007=
68829 46/// /2203 10195 20130 39889 40196 51001 333 10201 20115 91007=
68833 46/// /2906 10206 20096 39530 48571 51001 333 10207 20136 91010=
68835 46/// /0000 10226 20129 30078 40189 58002 333 10232 20168 91006=
68837 46/// /2211 10238 20113 30131 40185 52005 333 10238 20181 91021=
68839 46/// /2908 10226 20124 39999 48595 51003 333 10226 20175 91015=
68840 46/// /0102 10193 20133 39595 48568 50000 333 10193 20141 91004=
68841 46/// /0503 10229 20143 30020 48601 58003 333 10230 20167 91006=
68843 46/// /2507 10204 20152 30088 40187 52005 333 10205 20167 91014=
68844 46/// /2412 10216 20128 30119 40189 52008 333 10219 20174 91019=
68848 46/// /2506 10229 20120 30177 48617 52003 333 10230 20190 91015=
68849 46/// /2309 10177 20134 39453 48560 50000 333 10177 20133 91014=
68912 46/// /1607 10174 20121 30193 40202 52008 333 10184 20124 91010=
68918 46/// /0804 10211 20121 30187 40203 53006 333 10215 20130 91006=
68921 46/// /2704 10225 20117 30199 40203 53006 333 10228 20106 91009=
68922 46/// /0000 10215 20095 30034 48617 56002 333 10215 20130 91004=
68923 46/// /1906 10204 20100 30026 48609 53001 333 10221 20122 91087=
68924 46/// /3104 10216 20096 30184 48618 53003 333 10227 20104 91008=
68925 46/// /1203 10203 20096 39859 48597 52006 333 10204 20091 91009=
68927 46/// /2405 10220 20115 30077 40197 55000 333 10221 20130 91010=
68933 46/// /2510 10203 20149 30195 40203 53002 333 10207 20162 91013=
68935 46/// /2506 10202 20127 30132 40195 54000 333 10205 20153 91011=
68940 46/// /2315 1//// 2//// 30171 4//// 51002 333 1//// 2//// 91021=



SMUS60 KWBC 210900
AAXX 21094
60001 22570 63616 10187 20138 30132 40170 51012 82102 333 60007=
60005 22570 33310 10191 29061 30133 40170 53015 83800 333 60007=
60010 22889 41210 10076 21107 37684 47128 52008 82092 333 60007 444 26122 16123=
60015 22466 41107 10142 20100 39463 40175 51010 81892 333 60007=
60020 22570 51005 10199 20114 30133 40175 52011 81582 333 60007=
60025 22580 50622 10183 20121 30071 40161 51009 81572 333 60007=
60030 22562 43616 10188 20128 30114 40169 53012 83502 333 60007=
60035 22570 70319 10190 20142 30132 40167 53012 83802 333 60007=
60040 22575 20217 10190 20118 30143 40168 51012 81508 333 60007=
60096 32956 60416 10172 20148 40127 53010 86080 333 86360=
60320 21566 71014 10146 20072 30141 40247 51011 70222 85861 333 60007=
60338 21570 70713 10123 20084 30190 40257 53010 78082 8683/ 333 50464 69907 81822 84642=
60351 41420 80705 10112 20090 40172 53019 76262 889// 333 85813 81926 87630 95930=
60353 41456 80212 10127 20010 40165 52015 76362 889// 333 84816 81926 86630 91845 95930=
60355 41556 82410 10107 20091 40157 52022 78182 889// 333 81920 88830 95900=
60360 41430 8//// 10104 20097 40151 51015 76196 889// 333 82816 81926 87630 95950=
60369 41558 83610 10142 20100 40208 53006 70362 85280 333 85823 84359 91846=
60390 41545 72404 10099 20094 40221 51004 76162 878// 333 83823 87633 95910=
60395 41358 83611 10109 20103 40214 58006 72162 888// 333 83706 83833 95950=
60402 41457 82002 10144 20124 40180 51012 72162 889// 333 82816 83820 82923 85633=
60403 41562 80000 10097 20089 40164 53017 72162 888// 333 83826 83833 95960=
60419 41558 80410 10078 20053 40159 51011 76062 888// 333 83820 86630 95995=
60421 42560 80410 10068 20059 39095 48443 53011 882// 333 84826 85830 95970=
60423 41458 8//// 10064 20052 39162 48433 53017 76062 888// 333 82813 86630 95990=
60425 42556 72406 10081 20075 40240 53014 878// 333 83823 86626 95990=
60430 41/02 90000 10058 20058 40232 53005 76062 333 89/// 95990=
60437 41/03 93609 10038 20038 38985 48482 53006 74364 333 89/// 95990=
60444 41558 83604 10065 20056 39063 48476 51007 76262 888// 333 81826 88630 95990=
60445 41456 80616 10046 20025 38997 48474 53018 76162 882// 333 83710 87826 95970=
60452 41560 82402 10116 20090 40240 52010 70262 888// 333 84820 86626=
60457 41558 70000 10091 20081 40247 52011 72162 8451/ 333 84626 84460 95900=
60461 41470 81403 10113 20074 40254 53013 76162 888// 333 83816 86620 91818 95900=
60467 41558 73416 10098 20051 40146 58001 70362 85230 333 85830 84360 95900=
60468 41358 71207 10067 20038 39186 48454 52014 70262 878// 333 82806 87620 95970=
60475 42456 81204 10026 20013 39183 48440 51012 888// 333 83813 86833 95910=
60490 41560 62004 10086 20071 40253 53012 76262 86800 333 82823 85626 95990=
60492 42560 72905 10095 20067 40244 51007 878// 333 83826 84633 95900=
60507 42565 72603 10068 20038 40257 53016 86530 333 86626 83360 95900=
60511 41430 82909 10036 20036 39082 48517 51006 71022 888// 333 82716 83820 85623 95950=
60514 42558 73210 10060 20043 39291 48520 53004 86630 333 83720 83626 95940=
60515 42558 73323 10095 20047 40174 55002 83230 333 83830 85360 95970=
60517 42570 40802 10123 20077 40252 52014 82230 333 82826 83360 95900=
60518 42565 60000 10119 20067 40230 52015 84570 333 84620 83360 95900=
60520 42560 62402 10061 20054 40262 53018 83580 333 83630 84360 95900=
60522 42560 20000 10092 20052 40262 51013 82200 333 82826 95900=
60525 42660 53222 10146 20059 40131 51007 83230 333 83840 83360 95900=
60531 42565 42204 10090 20043 40259 52013 84200 333 84826 95900=
60535 41556 83210 10014 20003 38821 48483 50002 72272 886// 333 88720 95900=
60536 42560 60000 10045 20035 39354 48526 51008 86500 333 86630 95900=
60540 42565 50000 10057 20015 39047 48507 51012 85602 333 83720 83630 95900=
60549 42558 50114 10035 20013 38952 48542 52010 85200 333 82720 84826 95960=
60550 42470 83612 10005 21013 38661 48511 52012 886// 333 88715 95964=
60555 41658 72405 10090 20069 40157 51010 76061 83210 333 83846 86460=
60557 42475 50210 10036 21010 38878 48518 52010 85200 333 83713 95970=
60559 41560 82309 10095 20091 40140 52006 76062 888// 333 83720 84826=
60560 42565 53307 10058 21001 38979 48524 52012 85800 333 83826 83633 95960=
60566 41959 23320 10118 21004 40181 53004 70700 82030 333 82360=
60571 42670 50703 10109 21029 39265 48529 52015 82280 333 82833 84360 95900=
60580 42960 03009 10134 20014 40171 50007=
60581 42660 32811 10134 20038 40170 51005 82130 333 82840=
60590 42975 03307 10124 20022 40195 51017=
60602 42960 50815 10126 20009 40192 52020 85030 333 85360 95900=
60607 42960 10818 10145 21000 40180 53013 81030 333 81362=
60611 42960 00507 10166 20019 40151 51013=
60620 42960 00818 10174 20025 40169 51019=
60630 41957 00719 10175 20024 40164 53014 70700=
60640 42960 00407 10180 20046 40145 51015=
60656 42956 01008 10165 21049 40141 53023=
60670 42965 62003 10236 21001 39034 48494 51018 80002 333 86073 95900=
60680 42970 53005 10188 21146 38618 48495 51021 80002 333 85073 95900=
60686 42960 30716 10251 21041 40118 52022 82032 333 82360=
60690 42960 33618 10290 2//// 40088 50022 83032 333 83362=
60710 41560 80615 10130 20130 30066 40147 50010 76162 888// 333 84820 85630=
60714 41457 70518 10142 20117 30156 40162 51009 72122 879// 333 85816 81923 84630=
60715 41558 80717 10149 20101 30145 40155 50009 76062 8688/ 333 59030 84826 85633 88359=
60720 41560 7//// 10150 20116 30120 40155 52009 70262 878// 333 84820 84630=
60723 41557 72702 10101 20090 39975 40166 53011 76062 8428/ 333 84823 84360=
60725 41558 70104 10097 20088 39982 40155 53020 78082 878// 333 84820 84630=
60735 22550 73603 10117 20106 30053 40135 51014 84202 333 60007 84823 84070=
60738 32004 80804 10043 20028 38883 48450 51013 887// 333 88700=
60740 41458 80002 10121 20115 30124 40134 52008 72998 889// 333 86813 82923 84626=
60745 32560 41906 10114 20034 39762 40133 51012 84800 333 83826=
60748 32570 33603 10125 20068 39721 40138 52011 83800 333 82826=
60750 32560 22006 10135 20066 30101 40126 53009 82800 333 82820=
60760 25660 02504 10106 20056 30032 40137 51013 333 59050 60007 91007 91113=
60764 32562 62606 10128 20070 30092 40144 51014 86200 333 86830=
60769 32660 22214 10143 20040 30131 40142 51014 82530 333 82633=
60770 32975 02308 10134 20048 30004 40143 50012=
60775 32565 32808 10131 20024 39801 40156 51011 82202 333 82826 91013 91116=
60780 32560 12308 10125 20054 39862 40170 51012 81280 333 81820=
61017 41958 52202 10328 21018 39675 40046 70622 81032 333 59018 81364 85080=
61024 41958 53208 10352 20016 39526 40067 70622 84032 333 59004 84364=
61036 42960 70204 10354 21006 39847 40076 80008 333 59003 87280=
61043 42960 60410 10344 21072 39646 40069 80008 333 58003 86280=
61045 42960 70000 10365 20035 39590 40090 80008 333 59008 87280=
61049 42965 70804 10370 20065 3//// 4//// 80008 333 5//// 87280=
61052 41958 50406 10326 20038 39832 40075 70622 80002 333 58003 85080=
61075 42960 70404 10345 20016 39774 40071 80008 333 58003 87280=
61080 41958 70410 10350 21038 39667 40071 70622 80008 333 59003 87280=
61085 42965 50804 10350 20116 3//// 4//// 80002 333 5//// 85080=
61090 42960 70410 10353 21029 39578 40069 80008 333 59003 87280=
61091 42960 71802 10343 20067 39634 40073 80008 333 59011 87280=
61096 42965 71402 10357 20020 39706 40073 80008 333 58000 87280=
61099 41956 70000 10340 20209 39850 40071 7062/ 80008 333 58001 87280=
61600 42960 63608 10205 20189 30107 40112 83032 333 58007 83363 84073=
61612 42960 52802 10250 20075 30089 40097 82082 333 58002 82363 83073=
61627 42958 53203 10260 20019 3//// 4//// 83081 333 5//// 83362 83073=
61630 42960 11802 10280 20121 30084 40103 81030 333 58006 81363=
61641 42458 63608 10207 20199 30086 40119 83682 333 58010 83710 84363=
61666 42960 23604 10224 20173 30107 40117 80002 333 58011 82073=
61679 42960 23204 10236 20161 30112 40120 80002 333 58016 82073=
61687 42960 01808 10272 20178 30050 40107 333 58004=
61695 42458 72204 10220 20205 30092 40118 84502 333 58006 84613 85073=
61697 42958 03502 10224 20210 30106 40120 333 58012=
61698 42960 03604 10240 20210 30099 40110 333 58010=
61699 42956 02410 10300 20147 39915 40100 333 58006=
61901 42484 61316 10225 20189 39659 40157 53015 868// 90850 333 85810=
61902 42488 21315 10283 20218 40123 81101 333 59001 81818=
61974 21470 72902 10305 20259 40088 71522 84936 333 58007 60007 81916 83817 85275 94329=
61980 24569 70818 10314 20238 40114 700// 333 58000 60007 90710 91124 555 60005=
61986 22470 71215 10310 20260 40077 82206 333 59011 60007 82819 87275 94323=
61988 21480 20719 10296 20245 40104 70181 82802 333 59004 69974 82818 91135=
61990 22475 41210 10310 20238 40117 84202 333 59001 60007 84816 94322=
61995 31208 10284 20225 39640 71500 83800 333 59004 60007 83817 91121 94322=
61998 26/// /3017 10138 20076 30187 40223 54000 333 59047 60007 90710 91121=
62002 32960 32807 10114 20038 39435 48489 52013 83030 333 83360=
62007 32960 02509 10143 20079 30159 40163 53021=
62008 32460 72106 10102 20066 39342 48474 53020 87500 333 87618=
62012 32560 22909 10186 20100 30130 40160 53017 81104 333 81825 82070=
62016 32558 23206 10166 20119 30149 40179 51017 82100 333 82825=
62019 32560 23608 10182 20135 4//// 5//// 82100 333 82825=
62053 31958 11035 10223 20056 39995 40150 52017 70700=
62062 32560 50915 10183 20174 40172 52018 85500 333 85625=
62103 32970 63605 10122 20077 39764 4//// 52019 86070 333 86360=
62120 32970 00000 10150 20092 39575 51006=
62131 32970 00000 10170 20093 39860 4//// 32960=
62161 32970 50905 10255 20025 30054 40106 51016 80005 333 85260=
62176 31958 30925 10225 20071 30153 40152 51005 70611 83030 333 83360=
62200 32960 00403 10199 20022 3//// 4//// 5////=
62212 32970 43506 10200 20003 39351 48/// 53008 80002 333 84070=
62259 32970 73408 10312 20099 40126 51026 87080 333 87360=
62271 32970 01909 10276 21069 39674 4//// 53011=
62306 32560 40508 10182 20118 40193 52011 84500=
62309 32560 30508 10182 20102 40173 54000 83500=
62318 32560 20304 10195 20113 40179 52005 82100=
62332 32560 33407 10188 20139 40182 52011 83200=
62337 32560 43605 10198 20118 40168 52006 84200=
62357 32960 03502 10206 20126 40175 57006=
62366 35860 40409 10201 20116 40171 54000 84030=
62387 31920 00107 10195 20132 40153 57002 70500=
62393 31958 33408 10226 20101 40174 52008 70500 83030=
62405 31956 00000 10276 20089 40135 54000 70500=
62417 32960 00708 10220 20121 40174 52005=
62419 32960 00410 10259 20019 40135 52001=
62423 32960 81401 10220 20062 40167 52004 80007=
62435 32960 00109 10270 20070 40141 52002=
62440 32560 40308 10208 20158 40178 52006 84200=
62455 32960 03107 10201 20119 40190 54000=
62459 32960 03018 10206 20166 40132 52003=
62463 32560 43620 10240 20099 40133 54000 83501=
63170 32980 01612 10285 20100 40201 333 58008=
63210 32980 00115 10275 20220 40113 333 58011=
63260 32580 20815 10313 20240 40103 82100 333 59012 82823=
63331 42580 2//// 10290 20119 38059 40239 82200 333 58006 82826=
63332 42580 11304 10/// 20/// 38218 4//// 81100 333 58000 81825=
63333 42580 11302 10272 20108 38170 40183 81100 333 58002 81827=
63334 42580 31904 10246 20058 37635 4//// 83100 333 58009 83825=
63402 42580 30000 10285 20122 38370 49981 83200 333 58000 83826=
63403 41560 10202 10260 20114 70510 81100 333 81826=
63450 42580 11103 10254 20042 37748 40055 81100 333 58005 81825=
63451 42580 11106 10295 20065 38147 40036 81100 333 58006 81826=
63453 42980 03002 10352 20120 39043 40270 333 59006=
63460 42580 33602 10278 20144 83200 333 83824=
63474 42580 20806 10232 20095 37613 4//// 82100 333 58006 82828=
63500 42580 32902 10346 20120 83200 333 83823=
63533 42580 10705 10297 20089 38522 4//// 81100 333 58002 81830=
63630 32580 10907 10336 20120 38948 48/// 81100 333 59020 81825 555 10195 RH27/ VP 14/1=
63658 32580 11805 10323 20143 38875 48505 81100 333 58009 81822 555 RH 34% VP 16.3 SUNNY=
63661 42580 23604 10282 20092 48522 81201 333 58002 81827=
63671 42680 31307 10342 20208 83100 333 83838=
63674 31550 21802 10300 20180 39049 48504 70544 82230 333 58003 82820 555 10220 RH49% VP 20.6HPA=
63695 42580 11103 10252 20172 81101 333 81823=
63714 42580 60000 10286 20044 48479 82161 333 58003 82826 86077=
63717 42580 51007 10269 20116 48530 82201 333 58003 82827 84078=
63723 42582 61405 10321 20217 862// 333 86828=
63726 21570 71402 10180 20148 70262 8357/ 333 69907 83618 87462 555 10160 RH 81% VP 16.8=
63729 32580 60000 10262 20199 38874 48/// 8293/ 333 55300 58009 82622 81924 85359=
63733 32580 43210 10295 20169 38858 48509 82931 333 58001 82626 81928 83361=
63740 42580 20412 10280 20119 48512 82201 333 59001 82827=
63756 32480 72310 10215 20184 38882 48517 8293/ 333 58024 82818 81919 87359=
63772 42580 51108 10328 20224 84260 333 84830=
63791 32680 20910 10314 20166 39123 48523 82200 333 58004 82835=
63793 42580 40918 10322 20200 40108 84200 333 58008 88254=
63801 32580 33004 10286 20190 39204 48540 81901 333 58009 81825 81926 83080=
63820 42580 41010 10325 20220 40116 84100 333 58012 84827=
63832 32580 29902 10290 20170 38833 48516 81131 333 58012 81824 81358 81073=
63862 32580 11208 10290 20186 38901 48526 81100 333 58009 81129=
63866 32580 40310 10306 20224 39532 48/// 84500 333 58014 84624=
63870 32580 53009 10325 20252 30091 40109 85200 333 58010 85823=
63887 32580 20000 10268 20183 3//// 48/// 81200 333 55310 5//// 81824=
63894 32580 30115 10328 30057 40117 83200 333 58012 83823=
63962 32580 60310 10271 20204 38951 48518 86900 333 55310 59001 86823 81924=
63980 42582 73314 10307 20252 40099 83205 333 58005 83826 87275 94335 91122=
64380 32560 60000 10245 20178 38437 48524 83232 333 58002 83825 83360=
64381 32560 70000 10226 20179 38476 48515 8423/ 333 59001 84823 87360=
64383 21556 80000 10189 20152 76162 8323/ 333 69987 83825 88360=
64387 32560 71506 10268 20127 38525 48519 83232 333 58001 83825 83360=
64500 42460 61206 10285 20243 30097 40110 86500 333 58004 83611 86640=
64501 41460 42602 10307 20252 30102 40111 71799 84901 333 58006 84810 81920 83075 94946 95836=
64510 42460 6//// 10284 20227 39456 40111 84530 333 59002 84612 85357=
64550 42460 6//// 10296 20260 3//// 4//// 86800 333 5//// 83813 86630 94941 95831=
64551 42460 4//// 10312 20241 3//// 4//// 84100 333 5//// 84812 94919 95839=
64556 42460 4//// 10286 20223 3//// 4//// 84200 333 5//// 84811 94919 95879=
64560 42460 6//// 10272 20236 3//// 4//// 86200 333 5//// 86810 94919 95819=
64700 42960 60610 10375 20012 39737 40064 80002 333 59017 86075=
64702 42960 60804 10351 2//// 3//// 4//// 80002 333 5//// 86075=
64706 42960 62206 10354 20163 39603 4//// 80002 333 59008 87075=
64709 42960 62604 10366 20058 3//// 4//// 80002 333 5//// 86075=
64750 42960 72214 10354 20168 39676 40074 80002 333 58003 87075=
64751 42960 41004 10330 21080 3//// 4//// 80002 333 5//// 84075=
64753 42960 00406 10330 21063 39836 4//// 333 5////=
64754 41958 60812 10362 20052 3//// 4//// 70622 80002 333 5//// 86075=
64756 42960 71008 10370 2//// 39475 4//// 80002 333 59011 87075=
64758 42962 61412 10390 21048 3//// 4//// 80002 333 5//// 86075=
65201 42460 72706 10314 20268 30072 40121 85808 333 55408 40667 59004 85814 94919=
65202 32460 72410 10305 20284 30068 40095 85208 333 55408 40492 59005 85813 94903=
65208 42461 72510 10295 20231 39850 40112 84208 333 58001 84812 86280=
65250 42460 72605 10302 20264 30080 40113 86278 333 55408 40575 58008 86810=
65306 41955 62204 10333 20213 39762 40082 70522 80005 333 58001 86276=
65319 42958 71804 10310 20247 39620 40086 83032 333 58004 83361 85076=
65330 42960 72808 10292 20216 39661 40091 83032 333 59004 83361 85076=
65335 42960 72208 10293 20231 39880 40101 86032 333 58002 86360 83076=
65338 42457 62006 10292 20244 39925 4//// 81132 333 58001 81815 85076 94902 95832=
65344 42460 72212 10320 20265 30093 40104 83802 333 58002 81612 83813 85076 94918 95838=
65401 41958 03201 10340 20188 40098 70500 333 59009=
65404 42962 32306 10290 20220 40114 81032 333 58005 81363 83075=
65416 42962 63202 10259 20196 40172 83036 333 58001 83362 86275=
65418 42462 72307 10313 20229 40104 8353/ 333 58008 83612 87360=
65420 42962 72305 10300 20208 40113 8703/ 333 58003 87362=
65432 41460 72303 10245 20228 40121 70262 8353/ 333 59009 83611 87361=
65437 41970 72303 10289 20249 40104 70361 83036 333 59012 83363 87275=
65439 42960 72705 10262 20221 40121 8703/ 333 59005 87361=
65442 42462 72307 10274 20236 40118 8453/ 333 59005 84611 87360=
65445 42464 52704 10295 20254 40113 83802 333 58002 81611 83814=
65453 42962 22302 10300 20253 40105 80002 333 59003 82075=
65457 42468 62702 10299 20259 40107 84202 333 59013 84815 83075=
65459 42464 22301 10300 20246 40115 82200 333 59005 82816=
65460 42966 42303 10317 20249 40110 80002 333 59005 84075=
65462 42966 02304 10308 20256 40105 333 58001=
65467 42460 62704 10296 20269 40113 84930 333 59006 84613 86360 81930 94635 95704=
65469 41468 52304 10299 20262 40111 72991 82102 333 58001 82815 85075=
65472 41450 32402 10302 20257 40112 70511 83202 333 59002 83815=
65473 42466 52309 10304 20252 40099 83202 333 59002 83816 84075=
65475 42469 62312 10310 20266 40/// 83232 333 5//// 83816=
65501 42960 70406 10335 21008 39786 40090 80002 333 58007 87076=
65502 42960 70804 10300 21014 39711 40078 86072 333 59002 86363=
65503 41956 70204 10324 20013 39757 40091 70622 80002 333 58003 87076=
65505 42965 70406 10346 20023 39760 40090 84032 333 58003 84363 84076=
65507 42960 70604 10337 20000 39748 40085 80002 333 58001 87076=
65510 42960 73004 10315 20173 39593 40094 83032 333 59003 83363 85076=
65516 42960 73606 10330 20097 39788 40084 83072 333 59009 83363 85076=
65518 42960 73606 10330 20108 39720 40072 80002 333 59010 87076=
65522 42565 72206 10310 20200 39781 40101 81532 333 58006 81620 86076=
67009 3//// /1901 10329 20245 39961 40084 58012=
67012 12582 42602 10295 20267 30103 40114 5/005 72162 84202 333 60141 84820 555 81075=
67020 31580 72008 10325 20244 30079 40106 58014 71522 84902 333 81820 81920 83633 84073 94971 94972 94973 94974 95831 95832 95833 95834=
67023 32582 21808 10324 20245 30091 40096 57017 81808 333 81820 555 81640 81275=
67025 32582 41204 10307 20273 39996 40096 58009 83202 333 83820 84073=
67027 42582 53406 10320 20243 30086 40107 57013 83932 333 83820 81920 94968 95818 555 81640 81360 82073=
67037 32582 6//// 10/// 20/// 30058 40099 5/009 82236 333 82820 85273 555 81360=
67072 2//// /3504 10262 20253 30121 40123 5/003=
67073 32581 73206 10/// 20/// 30084 40110 58003 82806 333 82823 85273 555 81633=
67083 32582 60602 10264 20174 38748 48523 58007 85832 333 85820 555 81623 81360 82073=
67095 22480 51206 10315 20244 30107 40114 58010 85902 333 69931 82917 82317 83073 94971 94972 94973 94974 94975 94977 94978 95831 95832 95833 95834 95835 95837 95838 555 82633=
67107 31575 50902 10/// 20/// 38486 48524 58007 71792 84903 333 83820 81920 94976 94977 94978 95876 95877 95878 555 81627 81073=
67117 32582 32606 10330 20/// 30100 40109 58004 81202 333 81820 555 82073=
67131 32582 73006 10/// 20/// 30104 40109 50006 878// 333 81820 87640=
67137 3//// /0804 10273 20/// 38890=
67143 32580 20610 10/// 20/// 30112 40119 58002 82800 333 82820 92438 555 81633=
67152 32582 53002 10292 20/// 39218 48532 50000 83830 333 81820 82630 83360=
67157 32580 50206 10/// 20/// 30121 40228 57009 85800 333 81820 85640=
67161 3//// /2406 10327 20236 30080 40089 5/007=
67197 32580 42208 10316 20249 30107 40117 58003 82232 333 82820 555 82360 82073=
67283 42480 62805 10282 20254 40112 85430 333 58022 94340=
67295 42480 51708 10245 20194 39365 48532 85200 333 58017 94324=
67297 41465 5//// 10274 20243 40115 70262 85830 333 58022 94383=
67315 42580 51304 10292 20239 40125 50004 84230 333 94320=
67323 42580 40908 10309 20221 40147 50011 84800 333 94320=
67335 42580 31503 10302 20210 40121 50006 83200 333 94320=
67341 42570 69902 10333 20216 40140 50002 83239 333 94320=
67461 42680 62308 10255 20171 48515 81130 333 59003 81832 86360 91016=
67475 42560 62004 10251 20184 48/// 83251 333 5//// 83820 85360 82080=
67476 42680 32104 10267 20177 48/// 81230 333 58012 81830 83360=
67477 41680 53002 10257 20178 48528 71722 82232 333 58016 81932 82832 83361 82080=
67541 42980 20000 10270 20197 48/// 82030 333 5//// 82360=
67543 42980 70000 10264 20180 48/// 83037 333 58015 83362 86280=
67571 42682 50302 10255 20180 48/// 85230 333 5//// 81935 85835 81360=
67575 42680 22701 10280 20183 48483 82232 333 58018 82830 81362 81080=
67580 42780 63002 10289 20204 48/// 86201 333 58025 86850 81080=
67583 42680 50000 10300 20190 48/// 84132 333 5//// 81835 81360 83080=
67625 42982 33008 10289 20185 48/// 81045 333 58017 81361 83275=
67641 42980 50203 10270 20187 48519 80001 333 58014 85080 91017=
67662 42680 60902 10279 20176 48/// 83131 333 5//// 83842 82360 83080=
67741 42980 13004 10320 20193 48529 81030 333 58008 81362=
68006 42989 02804 10331 20052 38925 48520 52017 333 10334 20247 91006 555 91015=
68010 46/// /1307 10349 20039 38904 48523 58001 333 10349 20228 91013 555 91016=
68014 42689 11904 10315 20039 38615 48531 50010 81880 333 1//// 2//// 9////=
68018 42989 13606 10314 20144 38918 48532 51012 80001 333 1//// 2//// 555 91017=
68024 41/60 /0908 10354 20047 38880 48528 70200 333 30/// 5///1=
68040 41/60 /3615 10327 20153 39050 48540 50003 702// 333 5///1=
68054 41/60 /0905 10326 20111 39022 48541 50004 70200 333 30/// 5///1=
68116 46/// /0806 10356 20011 38597 48550 50000 333 10357 20179 91013 555 91023=
68148 41/60 /3601 10300 20152 39010 70200 333 30/// 5///1=
68174 41670 10508 10283 20144 38802 48535 52003 70500 81100 333 10283 20181 91012=
68176 46/// /0604 10314 20156 39138 48545 58003 333 10314 20180 91011=
68184 46/// /1002 10270 20168 39075 48556 52012 333 10270 2//// 91006=
68186 46/// /0903 10305 20194 39304 48575 52015 333 10305 20197 91008=
68192 42670 20804 10312 20181 39509 48616 53002 82500 333 10315 20190=
68212 46/// /1106 10308 21015 38932 48561 52004 333 10312 20182 91011 555 91021=
68234 42960 0//// 10327 20106=
68240 42/60 /3506 10316 20089 39019 48526 50003 333 30/// 5///1=
68242 42980 03408 10321 20059 38737 48527 52008 333 10322 20125 91014=
68263 42970 03107 10282 20135 38504 48528 52008 333 10282 20168 91013=
68264 46/// /3406 1//// 2//// 38529 4//// 52010 333 1//// 2//// 91011=
68286 46/// /0608 10236 20157 38380 48533 52007 333 10237 20157 91013=
68290 41565 41006 10267 20181 39195 48562 51001 70511 84500 333 10268 20194 91011=
68296 46/// /0102 10307 20202 39827 48593 51004 333 10309 20174 91005=
68300 46/// /2017 10247 20128 39972 40118 58000 333 10247 20155 91023 555 91012=
68322 46/// /1505 10291 20048 39162 48552 52002 333 10291 20141 91010=
68328 42960 11904 10305 20027 48/// 5//// 80002=
68336 46/// /2803 10276 20066 38849 48531 52006 333 10276 20105 91006=
68342 46/// ///// 10285 20050 38522 48520 58001 333 10286 20109=
68350 46/// /0108 10298 20096 38671 48528 52003 333 10298 20103 91013=
68351 46/// /3404 10278 20079 38453 48532 52007 333 10285 20090 91010=
68362 46/// /1802 10265 20127 38522 48531 58000 333 10268 20103 91004=
68368 41980 00308 10259 20111 38339 48533 53007 70500=
68408 46/// /1511 10176 20114 30160 40169 53001 333 10177 20123 91020=
68416 46/// /1207 10267 20028 39063 48552 53005 333 10267 20140 91011=
68424 42982 12004 10257 20101 39216 48550 52006 80004 333 10257 20164 91008=
68438 42982 12304 10263 20114 38825 48526 52007 80001 333 10263 20128 91008=
68442 42980 00305 10269 20104 38660 48518 52003 333 10272 20094 91008=
68461 42580 30606 10229 20146 38335 48519 52003 83500 333 10229 20157 91012=
68478 42/// /3402 10195 20176 38850 48506 52010 333 10199 20181 91003=
68488 46/// /0000 10257 20192 39282 48549 50000 333 10259 20221 91003=
68512 42982 11112 10231 21088 39042 48547 53004 80002 333 10231 20138 91018=
68524 46/// /1506 10274 20070 39079 48550 52002 333 10278 20151 91010=
68538 42882 11006 10252 20066 38739 48529 52007 81080 333 10252 20139 91010=
68542 46/// /3605 10243 20136 38555 48524 51003 333 10243 20104 91008=
68546 46/// /2005 10233 20130 38672 48524 51002 333 10233 20129 91010=
68572 42/// /0702 10189 20152 38429 48537 52002 333 10190 20145 91004=
68588 46/// /2207 10248 20211 30047 40158 52010 333 10248 20211 91012=
68614 46/// /1702 10223 20121 30136 40185 52002 333 10223 20118 91005=
68618 42980 10807 10243 20048 39073 48548 53000 80001 333 10243 20084 91011=
68624 46/// /0906 10214 20077 38769 48533 52001 333 10217 20128 91013=
68668 42565 80802 10195 20141 39328 48553 52006 885// 333 10208 20168 91004=
68674 46/// /2207 10206 20183 30136 40166 52011 333 10223 20193 91017=
68712 46/// /1914 10172 20113 30120 40194 52007 333 10172 20122 91019=
68714 46/// /2014 10223 20099 30151 48605 52008 333 10223 20113 91021=
68718 46/// /1503 10212 20099 39957 48605 55000 333 10212 20146 91007=
68722 46/// /1408 10211 20020 38576 48534 52003 333 10217 20054 91015=
68744 46/// /1207 10218 20107 39128 48548 57004 333 10221 20130 91013=
68752 46/// /2307 10184 20137 39503 48559 52011 333 10184 20162 91011=
68754 46/// /2102 10148 20128 39166 48543 52007 333 10160 20134 91006=
68816 42682 21717 10216 20098 30143 40200 57006 81501 333 20169 91020=
68828 42570 42507 10190 20116 39966 40203 50001 84500 333 91009=
68842 42580 32416 10215 20140 30119 40186 50003 83500 333 91021=
68906 42498 80318 10143 20118 30095 40159 58007 836// 333 10143 20121 91025 555 91015=
68916 46/// /0809 10229 20126 39939 40203 53007 333 10229 20151 91014=
68920 46/// /3005 10219 20114 30180 40192 58001 333 10221 20141 91009=
68926 46/// /2102 10207 20094 30035 40213 53002 333 10209 20139 91007=
68928 46/// /2804 10215 20107 30032 40190 55000 333 10216 20156 91009=
68994 41496 83632 10089 20083 39820 49848 58050 72166 8802/ 333 10093 20049 91050=